sensor_id;sensor_type;location;lat;lon;timestamp;P1;durP1;ratioP1;P2;durP2;ratioP2
45540;SDS011;31265;49.680;8.608;2023-08-24T00:03:18;4.75;;;1.60;;
45540;SDS011;31265;49.680;8.608;2023-08-24T00:05:48;3.20;;;1.80;;
45540;SDS011;31265;49.680;8.608;2023-08-24T00:08:18;4.47;;;1.80;;
45540;SDS011;31265;49.680;8.608;2023-08-24T00:10:46;3.25;;;1.88;;
45540;SDS011;31265;49.680;8.608;2023-08-24T00:13:15;8.83;;;2.80;;
45540;SDS011;31265;49.680;8.608;2023-08-24T00:15:45;8.67;;;2.57;;
45540;SDS011;31265;49.680;8.608;2023-08-24T00:18:14;3.22;;;1.70;;
45540;SDS011;31265;49.680;8.608;2023-08-24T00:20:45;5.72;;;1.67;;
45540;SDS011;31265;49.680;8.608;2023-08-24T00:23:14;4.53;;;1.80;;
45540;SDS011;31265;49.680;8.608;2023-08-24T00:25:43;2.85;;;1.42;;
45540;SDS011;31265;49.680;8.608;2023-08-24T00:28:11;3.80;;;2.08;;
45540;SDS011;31265;49.680;8.608;2023-08-24T00:30:40;3.42;;;1.83;;
45540;SDS011;31265;49.680;8.608;2023-08-24T00:33:11;4.30;;;1.98;;
45540;SDS011;31265;49.680;8.608;2023-08-24T00:35:39;2.42;;;1.45;;
45540;SDS011;31265;49.680;8.608;2023-08-24T00:38:07;7.38;;;1.90;;
45540;SDS011;31265;49.680;8.608;2023-08-24T00:40:37;4.07;;;1.85;;
45540;SDS011;31265;49.680;8.608;2023-08-24T00:43:07;2.88;;;2.10;;
45540;SDS011;31265;49.680;8.608;2023-08-24T00:45:36;3.60;;;1.83;;
45540;SDS011;31265;49.680;8.608;2023-08-24T00:48:05;3.25;;;1.67;;
45540;SDS011;31265;49.680;8.608;2023-08-24T00:53:06;3.70;;;1.90;;
45540;SDS011;31265;49.680;8.608;2023-08-24T00:55:34;3.33;;;1.73;;
45540;SDS011;31265;49.680;8.608;2023-08-24T00:58:03;4.80;;;1.80;;
45540;SDS011;31265;49.680;8.608;2023-08-24T01:00:32;4.10;;;2.13;;
45540;SDS011;31265;49.680;8.608;2023-08-24T01:03:00;3.47;;;1.65;;
45540;SDS011;31265;49.680;8.608;2023-08-24T01:05:29;7.97;;;1.80;;
45540;SDS011;31265;49.680;8.608;2023-08-24T01:07:58;4.07;;;1.80;;
45540;SDS011;31265;49.680;8.608;2023-08-24T01:10:27;4.95;;;1.95;;
45540;SDS011;31265;49.680;8.608;2023-08-24T01:13:12;4.85;;;2.10;;
45540;SDS011;31265;49.680;8.608;2023-08-24T01:15:47;3.60;;;1.83;;
45540;SDS011;31265;49.680;8.608;2023-08-24T01:18:19;3.03;;;1.80;;
45540;SDS011;31265;49.680;8.608;2023-08-24T01:20:52;6.55;;;2.67;;
45540;SDS011;31265;49.680;8.608;2023-08-24T01:23:32;6.80;;;1.90;;
45540;SDS011;31265;49.680;8.608;2023-08-24T01:26:07;2.83;;;1.80;;
45540;SDS011;31265;49.680;8.608;2023-08-24T01:28:38;5.85;;;2.08;;
45540;SDS011;31265;49.680;8.608;2023-08-24T01:31:07;6.78;;;2.22;;
45540;SDS011;31265;49.680;8.608;2023-08-24T01:33:36;2.93;;;1.83;;
45540;SDS011;31265;49.680;8.608;2023-08-24T01:36:05;5.80;;;2.55;;
45540;SDS011;31265;49.680;8.608;2023-08-24T01:38:33;3.33;;;1.88;;
45540;SDS011;31265;49.680;8.608;2023-08-24T01:41:05;5.28;;;2.22;;
45540;SDS011;31265;49.680;8.608;2023-08-24T01:43:41;3.10;;;1.92;;
45540;SDS011;31265;49.680;8.608;2023-08-24T01:46:14;2.80;;;1.70;;
45540;SDS011;31265;49.680;8.608;2023-08-24T01:48:45;2.85;;;1.50;;
45540;SDS011;31265;49.680;8.608;2023-08-24T01:51:14;2.70;;;1.73;;
45540;SDS011;31265;49.680;8.608;2023-08-24T01:53:43;3.85;;;1.98;;
45540;SDS011;31265;49.680;8.608;2023-08-24T01:56:15;4.07;;;2.17;;
45540;SDS011;31265;49.680;8.608;2023-08-24T01:58:44;3.10;;;1.80;;
45540;SDS011;31265;49.680;8.608;2023-08-24T02:01:12;3.05;;;2.03;;
45540;SDS011;31265;49.680;8.608;2023-08-24T02:03:40;3.03;;;2.03;;
45540;SDS011;31265;49.680;8.608;2023-08-24T02:06:09;4.13;;;2.10;;
45540;SDS011;31265;49.680;8.608;2023-08-24T02:08:38;3.42;;;1.80;;
45540;SDS011;31265;49.680;8.608;2023-08-24T02:11:07;4.47;;;1.90;;
45540;SDS011;31265;49.680;8.608;2023-08-24T02:13:38;4.18;;;2.35;;
45540;SDS011;31265;49.680;8.608;2023-08-24T02:16:07;3.20;;;1.88;;
45540;SDS011;31265;49.680;8.608;2023-08-24T02:18:36;4.35;;;2.05;;
45540;SDS011;31265;49.680;8.608;2023-08-24T02:21:08;3.90;;;1.90;;
45540;SDS011;31265;49.680;8.608;2023-08-24T02:23:39;4.38;;;2.42;;
45540;SDS011;31265;49.680;8.608;2023-08-24T02:26:07;4.47;;;1.83;;
45540;SDS011;31265;49.680;8.608;2023-08-24T02:28:38;4.47;;;2.33;;
45540;SDS011;31265;49.680;8.608;2023-08-24T02:31:09;3.30;;;1.92;;
45540;SDS011;31265;49.680;8.608;2023-08-24T02:33:37;4.30;;;1.95;;
45540;SDS011;31265;49.680;8.608;2023-08-24T02:36:09;4.20;;;2.15;;
45540;SDS011;31265;49.680;8.608;2023-08-24T02:38:37;3.72;;;2.28;;
45540;SDS011;31265;49.680;8.608;2023-08-24T02:41:07;4.95;;;2.28;;
45540;SDS011;31265;49.680;8.608;2023-08-24T02:43:39;3.65;;;2.22;;
45540;SDS011;31265;49.680;8.608;2023-08-24T02:46:10;4.18;;;2.33;;
45540;SDS011;31265;49.680;8.608;2023-08-24T02:48:38;3.47;;;2.22;;
45540;SDS011;31265;49.680;8.608;2023-08-24T02:51:07;3.80;;;1.70;;
45540;SDS011;31265;49.680;8.608;2023-08-24T02:53:37;4.38;;;2.30;;
45540;SDS011;31265;49.680;8.608;2023-08-24T02:56:05;3.28;;;1.60;;
45540;SDS011;31265;49.680;8.608;2023-08-24T02:58:36;3.17;;;1.67;;
45540;SDS011;31265;49.680;8.608;2023-08-24T03:03:35;4.28;;;2.20;;
45540;SDS011;31265;49.680;8.608;2023-08-24T03:06:05;9.13;;;2.45;;
45540;SDS011;31265;49.680;8.608;2023-08-24T03:08:35;3.83;;;1.73;;
45540;SDS011;31265;49.680;8.608;2023-08-24T03:11:05;4.05;;;2.08;;
45540;SDS011;31265;49.680;8.608;2023-08-24T03:13:35;6.07;;;1.90;;
45540;SDS011;31265;49.680;8.608;2023-08-24T03:16:04;3.72;;;1.92;;
45540;SDS011;31265;49.680;8.608;2023-08-24T03:18:38;3.88;;;1.92;;
45540;SDS011;31265;49.680;8.608;2023-08-24T03:21:07;4.05;;;2.35;;
45540;SDS011;31265;49.680;8.608;2023-08-24T03:23:36;4.00;;;2.40;;
45540;SDS011;31265;49.680;8.608;2023-08-24T03:26:06;4.18;;;2.17;;
45540;SDS011;31265;49.680;8.608;2023-08-24T03:28:34;2.90;;;1.67;;
45540;SDS011;31265;49.680;8.608;2023-08-24T03:31:02;4.18;;;2.22;;
45540;SDS011;31265;49.680;8.608;2023-08-24T03:33:35;5.05;;;1.95;;
45540;SDS011;31265;49.680;8.608;2023-08-24T03:38:32;4.88;;;2.10;;
45540;SDS011;31265;49.680;8.608;2023-08-24T03:41:04;2.88;;;1.92;;
45540;SDS011;31265;49.680;8.608;2023-08-24T03:43:34;3.13;;;2.03;;
45540;SDS011;31265;49.680;8.608;2023-08-24T03:46:04;3.30;;;2.30;;
45540;SDS011;31265;49.680;8.608;2023-08-24T03:48:33;3.97;;;2.15;;
45540;SDS011;31265;49.680;8.608;2023-08-24T03:51:03;3.90;;;2.00;;
45540;SDS011;31265;49.680;8.608;2023-08-24T03:53:31;4.95;;;2.55;;
45540;SDS011;31265;49.680;8.608;2023-08-24T03:56:00;4.18;;;2.22;;
45540;SDS011;31265;49.680;8.608;2023-08-24T03:58:29;3.10;;;2.00;;
45540;SDS011;31265;49.680;8.608;2023-08-24T04:00:58;3.85;;;2.10;;
45540;SDS011;31265;49.680;8.608;2023-08-24T04:03:27;3.75;;;1.98;;
45540;SDS011;31265;49.680;8.608;2023-08-24T04:05:55;7.57;;;1.77;;
45540;SDS011;31265;49.680;8.608;2023-08-24T04:08:25;5.88;;;2.22;;
45540;SDS011;31265;49.680;8.608;2023-08-24T04:10:53;5.55;;;2.47;;
45540;SDS011;31265;49.680;8.608;2023-08-24T04:13:23;2.85;;;1.85;;
45540;SDS011;31265;49.680;8.608;2023-08-24T04:15:53;4.75;;;1.85;;
45540;SDS011;31265;49.680;8.608;2023-08-24T04:20:51;3.08;;;2.00;;
45540;SDS011;31265;49.680;8.608;2023-08-24T04:23:23;3.35;;;1.98;;
45540;SDS011;31265;49.680;8.608;2023-08-24T04:25:54;3.25;;;1.83;;
45540;SDS011;31265;49.680;8.608;2023-08-24T04:28:23;4.60;;;2.50;;
45540;SDS011;31265;49.680;8.608;2023-08-24T04:30:51;4.45;;;2.22;;
45540;SDS011;31265;49.680;8.608;2023-08-24T04:35:49;6.18;;;2.63;;
45540;SDS011;31265;49.680;8.608;2023-08-24T04:38:18;4.40;;;2.40;;
45540;SDS011;31265;49.680;8.608;2023-08-24T04:40:50;4.43;;;2.60;;
45540;SDS011;31265;49.680;8.608;2023-08-24T04:43:31;5.00;;;2.47;;
45540;SDS011;31265;49.680;8.608;2023-08-24T04:45:59;4.43;;;2.45;;
45540;SDS011;31265;49.680;8.608;2023-08-24T04:48:28;4.00;;;2.42;;
45540;SDS011;31265;49.680;8.608;2023-08-24T04:50:59;3.70;;;1.98;;
45540;SDS011;31265;49.680;8.608;2023-08-24T04:53:28;4.20;;;2.33;;
45540;SDS011;31265;49.680;8.608;2023-08-24T04:55:58;5.43;;;2.75;;
45540;SDS011;31265;49.680;8.608;2023-08-24T04:58:27;4.95;;;2.85;;
45540;SDS011;31265;49.680;8.608;2023-08-24T05:00:59;5.50;;;2.63;;
45540;SDS011;31265;49.680;8.608;2023-08-24T05:03:27;4.53;;;2.53;;
45540;SDS011;31265;49.680;8.608;2023-08-24T05:05:58;5.45;;;2.50;;
45540;SDS011;31265;49.680;8.608;2023-08-24T05:08:36;7.93;;;2.50;;
45540;SDS011;31265;49.680;8.608;2023-08-24T05:11:12;5.60;;;2.45;;
45540;SDS011;31265;49.680;8.608;2023-08-24T05:13:48;3.40;;;2.10;;
45540;SDS011;31265;49.680;8.608;2023-08-24T05:16:19;5.50;;;2.35;;
45540;SDS011;31265;49.680;8.608;2023-08-24T05:18:48;9.15;;;2.65;;
45540;SDS011;31265;49.680;8.608;2023-08-24T05:21:16;6.45;;;2.60;;
45540;SDS011;31265;49.680;8.608;2023-08-24T05:23:44;6.15;;;2.60;;
45540;SDS011;31265;49.680;8.608;2023-08-24T05:26:14;8.15;;;2.20;;
45540;SDS011;31265;49.680;8.608;2023-08-24T05:28:50;6.65;;;2.65;;
45540;SDS011;31265;49.680;8.608;2023-08-24T05:31:20;4.63;;;2.70;;
45540;SDS011;31265;49.680;8.608;2023-08-24T05:33:49;4.30;;;2.90;;
45540;SDS011;31265;49.680;8.608;2023-08-24T05:36:17;4.05;;;2.58;;
45540;SDS011;31265;49.680;8.608;2023-08-24T05:38:46;7.18;;;3.60;;
45540;SDS011;31265;49.680;8.608;2023-08-24T05:41:33;6.13;;;3.20;;
45540;SDS011;31265;49.680;8.608;2023-08-24T05:44:03;7.32;;;3.35;;
45540;SDS011;31265;49.680;8.608;2023-08-24T05:46:32;5.43;;;3.10;;
45540;SDS011;31265;49.680;8.608;2023-08-24T05:49:01;5.88;;;3.50;;
45540;SDS011;31265;49.680;8.608;2023-08-24T05:51:30;5.22;;;3.35;;
45540;SDS011;31265;49.680;8.608;2023-08-24T05:53:58;9.65;;;3.47;;
45540;SDS011;31265;49.680;8.608;2023-08-24T05:56:26;5.28;;;3.28;;
45540;SDS011;31265;49.680;8.608;2023-08-24T05:58:56;4.60;;;3.17;;
45540;SDS011;31265;49.680;8.608;2023-08-24T06:01:26;4.63;;;3.08;;
45540;SDS011;31265;49.680;8.608;2023-08-24T06:03:55;11.35;;;3.53;;
45540;SDS011;31265;49.680;8.608;2023-08-24T06:06:23;4.78;;;3.03;;
45540;SDS011;31265;49.680;8.608;2023-08-24T06:08:52;6.57;;;4.05;;
45540;SDS011;31265;49.680;8.608;2023-08-24T06:11:20;6.53;;;2.72;;
45540;SDS011;31265;49.680;8.608;2023-08-24T06:13:51;7.78;;;2.83;;
45540;SDS011;31265;49.680;8.608;2023-08-24T06:16:22;5.22;;;2.97;;
45540;SDS011;31265;49.680;8.608;2023-08-24T06:18:52;7.15;;;3.17;;
45540;SDS011;31265;49.680;8.608;2023-08-24T06:21:21;3.95;;;2.53;;
45540;SDS011;31265;49.680;8.608;2023-08-24T06:23:49;4.95;;;2.60;;
45540;SDS011;31265;49.680;8.608;2023-08-24T06:26:19;7.38;;;2.92;;
45540;SDS011;31265;49.680;8.608;2023-08-24T06:28:48;4.90;;;3.37;;
45540;SDS011;31265;49.680;8.608;2023-08-24T06:31:16;4.30;;;3.00;;
45540;SDS011;31265;49.680;8.608;2023-08-24T06:33:46;5.53;;;3.30;;
45540;SDS011;31265;49.680;8.608;2023-08-24T06:38:43;7.45;;;3.28;;
45540;SDS011;31265;49.680;8.608;2023-08-24T06:41:11;5.38;;;3.42;;
45540;SDS011;31265;49.680;8.608;2023-08-24T06:43:39;5.47;;;3.38;;
45540;SDS011;31265;49.680;8.608;2023-08-24T06:46:08;6.10;;;2.78;;
45540;SDS011;31265;49.680;8.608;2023-08-24T06:48:36;4.20;;;3.00;;
45540;SDS011;31265;49.680;8.608;2023-08-24T06:51:06;7.70;;;3.33;;
45540;SDS011;31265;49.680;8.608;2023-08-24T06:53:35;3.92;;;2.75;;
45540;SDS011;31265;49.680;8.608;2023-08-24T06:56:03;8.23;;;3.47;;
45540;SDS011;31265;49.680;8.608;2023-08-24T06:58:31;10.80;;;3.03;;
45540;SDS011;31265;49.680;8.608;2023-08-24T07:01:00;5.68;;;2.92;;
45540;SDS011;31265;49.680;8.608;2023-08-24T07:03:34;5.63;;;2.75;;
45540;SDS011;31265;49.680;8.608;2023-08-24T07:06:03;4.38;;;2.33;;
45540;SDS011;31265;49.680;8.608;2023-08-24T07:08:34;4.18;;;2.67;;
45540;SDS011;31265;49.680;8.608;2023-08-24T07:13:33;7.07;;;2.97;;
45540;SDS011;31265;49.680;8.608;2023-08-24T07:16:03;4.85;;;2.95;;
45540;SDS011;31265;49.680;8.608;2023-08-24T07:18:32;11.35;;;2.78;;
45540;SDS011;31265;49.680;8.608;2023-08-24T07:21:00;5.28;;;2.63;;
45540;SDS011;31265;49.680;8.608;2023-08-24T07:23:30;5.38;;;2.67;;
45540;SDS011;31265;49.680;8.608;2023-08-24T07:25:58;4.43;;;2.05;;
45540;SDS011;31265;49.680;8.608;2023-08-24T07:28:27;4.30;;;2.20;;
45540;SDS011;31265;49.680;8.608;2023-08-24T07:30:56;5.22;;;1.67;;
45540;SDS011;31265;49.680;8.608;2023-08-24T07:33:26;3.85;;;2.03;;
45540;SDS011;31265;49.680;8.608;2023-08-24T07:35:55;4.72;;;1.80;;
45540;SDS011;31265;49.680;8.608;2023-08-24T07:38:32;2.78;;;1.40;;
45540;SDS011;31265;49.680;8.608;2023-08-24T07:41:00;13.45;;;1.52;;
45540;SDS011;31265;49.680;8.608;2023-08-24T07:43:29;5.80;;;2.00;;
45540;SDS011;31265;49.680;8.608;2023-08-24T07:45:58;2.33;;;1.30;;
45540;SDS011;31265;49.680;8.608;2023-08-24T07:48:26;3.58;;;1.50;;
45540;SDS011;31265;49.680;8.608;2023-08-24T07:50:57;3.95;;;1.77;;
45540;SDS011;31265;49.680;8.608;2023-08-24T07:53:25;3.42;;;1.50;;
45540;SDS011;31265;49.680;8.608;2023-08-24T07:55:57;2.42;;;1.45;;
45540;SDS011;31265;49.680;8.608;2023-08-24T07:58:27;7.97;;;1.70;;
45540;SDS011;31265;49.680;8.608;2023-08-24T08:00:55;3.03;;;1.50;;
45540;SDS011;31265;49.680;8.608;2023-08-24T08:03:26;3.60;;;1.90;;
45540;SDS011;31265;49.680;8.608;2023-08-24T08:05:55;3.15;;;1.70;;
45540;SDS011;31265;49.680;8.608;2023-08-24T08:08:25;3.15;;;1.60;;
45540;SDS011;31265;49.680;8.608;2023-08-24T08:11:02;3.35;;;1.48;;
45540;SDS011;31265;49.680;8.608;2023-08-24T08:13:30;4.90;;;2.00;;
45540;SDS011;31265;49.680;8.608;2023-08-24T08:16:02;2.40;;;1.77;;
45540;SDS011;31265;49.680;8.608;2023-08-24T08:18:32;3.00;;;1.50;;
45540;SDS011;31265;49.680;8.608;2023-08-24T08:21:01;3.45;;;1.70;;
45540;SDS011;31265;49.680;8.608;2023-08-24T08:23:38;1.92;;;1.20;;
45540;SDS011;31265;49.680;8.608;2023-08-24T08:26:08;3.08;;;1.27;;
45540;SDS011;31265;49.680;8.608;2023-08-24T08:28:38;2.67;;;1.30;;
45540;SDS011;31265;49.680;8.608;2023-08-24T08:31:08;2.03;;;1.10;;
45540;SDS011;31265;49.680;8.608;2023-08-24T08:34:21;2.05;;;1.20;;
45540;SDS011;31265;49.680;8.608;2023-08-24T08:36:49;2.70;;;1.38;;
45540;SDS011;31265;49.680;8.608;2023-08-24T08:39:17;2.55;;;1.30;;
45540;SDS011;31265;49.680;8.608;2023-08-24T08:41:49;7.90;;;1.40;;
45540;SDS011;31265;49.680;8.608;2023-08-24T08:44:19;3.38;;;1.25;;
45540;SDS011;31265;49.680;8.608;2023-08-24T08:46:50;2.25;;;1.15;;
45540;SDS011;31265;49.680;8.608;2023-08-24T08:49:18;2.53;;;1.27;;
45540;SDS011;31265;49.680;8.608;2023-08-24T08:56:45;2.90;;;1.00;;
45540;SDS011;31265;49.680;8.608;2023-08-24T08:59:16;2.20;;;0.77;;
45540;SDS011;31265;49.680;8.608;2023-08-24T09:01:48;2.42;;;1.10;;
45540;SDS011;31265;49.680;8.608;2023-08-24T09:04:20;2.30;;;0.88;;
45540;SDS011;31265;49.680;8.608;2023-08-24T09:06:49;2.58;;;1.33;;
45540;SDS011;31265;49.680;8.608;2023-08-24T09:09:18;1.88;;;0.90;;
45540;SDS011;31265;49.680;8.608;2023-08-24T09:11:52;3.55;;;1.10;;
45540;SDS011;31265;49.680;8.608;2023-08-24T09:14:22;2.57;;;1.30;;
45540;SDS011;31265;49.680;8.608;2023-08-24T09:16:51;3.28;;;1.33;;
45540;SDS011;31265;49.680;8.608;2023-08-24T09:19:19;2.42;;;0.90;;
45540;SDS011;31265;49.680;8.608;2023-08-24T09:21:59;3.47;;;1.30;;
45540;SDS011;31265;49.680;8.608;2023-08-24T09:24:35;3.38;;;0.90;;
45540;SDS011;31265;49.680;8.608;2023-08-24T09:27:13;4.95;;;0.90;;
45540;SDS011;31265;49.680;8.608;2023-08-24T09:29:54;0.85;;;0.60;;
45540;SDS011;31265;49.680;8.608;2023-08-24T09:32:27;2.08;;;1.20;;
45540;SDS011;31265;49.680;8.608;2023-08-24T09:35:03;1.77;;;1.00;;
45540;SDS011;31265;49.680;8.608;2023-08-24T09:37:36;1.40;;;0.82;;
45540;SDS011;31265;49.680;8.608;2023-08-24T09:40:07;2.47;;;0.95;;
45540;SDS011;31265;49.680;8.608;2023-08-24T09:42:38;1.38;;;0.82;;
45540;SDS011;31265;49.680;8.608;2023-08-24T09:45:13;2.15;;;0.90;;
45540;SDS011;31265;49.680;8.608;2023-08-24T09:47:54;1.77;;;0.88;;
45540;SDS011;31265;49.680;8.608;2023-08-24T09:50:23;2.03;;;0.90;;
45540;SDS011;31265;49.680;8.608;2023-08-24T09:52:56;2.17;;;0.80;;
45540;SDS011;31265;49.680;8.608;2023-08-24T09:55:30;2.90;;;0.98;;
45540;SDS011;31265;49.680;8.608;2023-08-24T09:58:09;2.13;;;0.73;;
45540;SDS011;31265;49.680;8.608;2023-08-24T10:00:41;1.48;;;0.75;;
45540;SDS011;31265;49.680;8.608;2023-08-24T10:03:13;2.25;;;0.90;;
45540;SDS011;31265;49.680;8.608;2023-08-24T10:05:51;2.50;;;0.80;;
45540;SDS011;31265;49.680;8.608;2023-08-24T10:08:34;2.03;;;0.95;;
45540;SDS011;31265;49.680;8.608;2023-08-24T10:11:09;8.35;;;1.10;;
45540;SDS011;31265;49.680;8.608;2023-08-24T10:13:43;4.00;;;1.25;;
45540;SDS011;31265;49.680;8.608;2023-08-24T10:16:22;1.70;;;0.77;;
45540;SDS011;31265;49.680;8.608;2023-08-24T10:18:55;3.33;;;1.00;;
45540;SDS011;31265;49.680;8.608;2023-08-24T10:21:25;3.90;;;0.80;;
45540;SDS011;31265;49.680;8.608;2023-08-24T10:24:00;2.10;;;0.88;;
45540;SDS011;31265;49.680;8.608;2023-08-24T10:26:30;2.42;;;0.93;;
45540;SDS011;31265;49.680;8.608;2023-08-24T10:29:11;1.67;;;0.70;;
45540;SDS011;31265;49.680;8.608;2023-08-24T10:31:42;2.00;;;0.80;;
45540;SDS011;31265;49.680;8.608;2023-08-24T10:34:14;2.05;;;0.90;;
45540;SDS011;31265;49.680;8.608;2023-08-24T10:36:50;3.35;;;1.40;;
45540;SDS011;31265;49.680;8.608;2023-08-24T10:42:04;3.42;;;1.20;;
45540;SDS011;31265;49.680;8.608;2023-08-24T10:44:55;2.03;;;0.98;;
45540;SDS011;31265;49.680;8.608;2023-08-24T10:47:31;2.10;;;0.90;;
45540;SDS011;31265;49.680;8.608;2023-08-24T10:50:13;3.17;;;0.88;;
45540;SDS011;31265;49.680;8.608;2023-08-24T10:52:47;2.20;;;1.00;;
45540;SDS011;31265;49.680;8.608;2023-08-24T10:55:28;1.75;;;0.80;;
45540;SDS011;31265;49.680;8.608;2023-08-24T10:58:01;2.10;;;0.68;;
45540;SDS011;31265;49.680;8.608;2023-08-24T11:00:41;2.13;;;1.08;;
45540;SDS011;31265;49.680;8.608;2023-08-24T11:03:31;3.78;;;1.17;;
45540;SDS011;31265;49.680;8.608;2023-08-24T11:06:16;1.95;;;0.82;;
45540;SDS011;31265;49.680;8.608;2023-08-24T11:08:46;2.13;;;0.90;;
45540;SDS011;31265;49.680;8.608;2023-08-24T11:11:21;0.93;;;0.50;;
45540;SDS011;31265;49.680;8.608;2023-08-24T11:16:47;1.67;;;0.90;;
45540;SDS011;31265;49.680;8.608;2023-08-24T11:19:19;2.17;;;0.90;;
45540;SDS011;31265;49.680;8.608;2023-08-24T11:21:48;4.57;;;0.93;;
45540;SDS011;31265;49.680;8.608;2023-08-24T11:24:20;2.45;;;0.82;;
45540;SDS011;31265;49.680;8.608;2023-08-24T11:26:56;2.10;;;0.65;;
45540;SDS011;31265;49.680;8.608;2023-08-24T11:29:27;1.90;;;0.60;;
45540;SDS011;31265;49.680;8.608;2023-08-24T11:32:00;2.47;;;0.90;;
45540;SDS011;31265;49.680;8.608;2023-08-24T11:34:37;1.73;;;0.88;;
45540;SDS011;31265;49.680;8.608;2023-08-24T11:37:07;3.78;;;1.33;;
45540;SDS011;31265;49.680;8.608;2023-08-24T11:39:48;1.83;;;0.93;;
45540;SDS011;31265;49.680;8.608;2023-08-24T11:42:17;2.95;;;1.45;;
45540;SDS011;31265;49.680;8.608;2023-08-24T11:44:52;6.10;;;0.95;;
45540;SDS011;31265;49.680;8.608;2023-08-24T11:47:20;1.25;;;0.73;;
45540;SDS011;31265;49.680;8.608;2023-08-24T11:49:53;3.50;;;1.00;;
45540;SDS011;31265;49.680;8.608;2023-08-24T11:52:22;3.58;;;0.95;;
45540;SDS011;31265;49.680;8.608;2023-08-24T11:54:58;1.90;;;0.90;;
45540;SDS011;31265;49.680;8.608;2023-08-24T11:57:30;2.22;;;0.77;;
45540;SDS011;31265;49.680;8.608;2023-08-24T12:00:01;2.85;;;0.95;;
45540;SDS011;31265;49.680;8.608;2023-08-24T12:02:36;6.95;;;1.00;;
45540;SDS011;31265;49.680;8.608;2023-08-24T12:05:20;2.38;;;0.80;;
45540;SDS011;31265;49.680;8.608;2023-08-24T12:07:53;3.03;;;0.80;;
45540;SDS011;31265;49.680;8.608;2023-08-24T12:10:22;6.70;;;1.27;;
45540;SDS011;31265;49.680;8.608;2023-08-24T12:13:02;2.53;;;1.13;;
45540;SDS011;31265;49.680;8.608;2023-08-24T12:15:38;4.53;;;0.93;;
45540;SDS011;31265;49.680;8.608;2023-08-24T12:18:09;2.35;;;1.00;;
45540;SDS011;31265;49.680;8.608;2023-08-24T12:20:40;2.88;;;1.08;;
45540;SDS011;31265;49.680;8.608;2023-08-24T12:23:10;1.42;;;0.70;;
45540;SDS011;31265;49.680;8.608;2023-08-24T12:25:43;1.73;;;0.77;;
45540;SDS011;31265;49.680;8.608;2023-08-24T12:28:14;1.80;;;0.90;;
45540;SDS011;31265;49.680;8.608;2023-08-24T12:30:51;1.92;;;0.95;;
45540;SDS011;31265;49.680;8.608;2023-08-24T12:33:22;1.90;;;0.88;;
45540;SDS011;31265;49.680;8.608;2023-08-24T12:35:59;1.98;;;1.20;;
45540;SDS011;31265;49.680;8.608;2023-08-24T12:38:34;1.45;;;0.77;;
45540;SDS011;31265;49.680;8.608;2023-08-24T12:41:05;3.70;;;1.00;;
45540;SDS011;31265;49.680;8.608;2023-08-24T12:43:35;2.60;;;1.00;;
45540;SDS011;31265;49.680;8.608;2023-08-24T12:46:09;1.42;;;0.80;;
45540;SDS011;31265;49.680;8.608;2023-08-24T12:48:41;2.00;;;1.00;;
45540;SDS011;31265;49.680;8.608;2023-08-24T12:51:11;9.88;;;1.00;;
45540;SDS011;31265;49.680;8.608;2023-08-24T12:53:51;1.90;;;0.88;;
45540;SDS011;31265;49.680;8.608;2023-08-24T12:56:23;2.28;;;0.80;;
45540;SDS011;31265;49.680;8.608;2023-08-24T12:58:54;3.53;;;1.17;;
45540;SDS011;31265;49.680;8.608;2023-08-24T13:01:24;3.80;;;0.80;;
45540;SDS011;31265;49.680;8.608;2023-08-24T13:03:52;3.22;;;1.25;;
45540;SDS011;31265;49.680;8.608;2023-08-24T13:06:26;3.20;;;1.08;;
45540;SDS011;31265;49.680;8.608;2023-08-24T13:08:57;1.88;;;1.05;;
45540;SDS011;31265;49.680;8.608;2023-08-24T13:11:30;2.28;;;1.15;;
45540;SDS011;31265;49.680;8.608;2023-08-24T13:14:02;2.50;;;1.02;;
45540;SDS011;31265;49.680;8.608;2023-08-24T13:16:35;1.85;;;0.80;;
45540;SDS011;31265;49.680;8.608;2023-08-24T13:19:04;4.25;;;0.90;;
45540;SDS011;31265;49.680;8.608;2023-08-24T13:21:42;2.63;;;1.20;;
45540;SDS011;31265;49.680;8.608;2023-08-24T13:24:13;1.83;;;0.93;;
45540;SDS011;31265;49.680;8.608;2023-08-24T13:26:44;1.63;;;0.93;;
45540;SDS011;31265;49.680;8.608;2023-08-24T13:29:15;3.17;;;1.00;;
45540;SDS011;31265;49.680;8.608;2023-08-24T13:31:48;2.67;;;1.08;;
45540;SDS011;31265;49.680;8.608;2023-08-24T13:34:35;2.72;;;0.93;;
45540;SDS011;31265;49.680;8.608;2023-08-24T13:37:07;3.63;;;1.10;;
45540;SDS011;31265;49.680;8.608;2023-08-24T13:39:37;2.08;;;0.90;;
45540;SDS011;31265;49.680;8.608;2023-08-24T13:42:11;2.47;;;1.30;;
45540;SDS011;31265;49.680;8.608;2023-08-24T13:44:46;2.58;;;1.05;;
45540;SDS011;31265;49.680;8.608;2023-08-24T13:50:05;1.80;;;0.95;;
45540;SDS011;31265;49.680;8.608;2023-08-24T13:52:43;4.03;;;1.63;;
45540;SDS011;31265;49.680;8.608;2023-08-24T13:55:17;3.15;;;1.42;;
45540;SDS011;31265;49.680;8.608;2023-08-24T13:58:43;3.90;;;0.98;;
45540;SDS011;31265;49.680;8.608;2023-08-24T14:02:07;2.17;;;1.13;;
45540;SDS011;31265;49.680;8.608;2023-08-24T14:04:37;2.45;;;1.10;;
45540;SDS011;31265;49.680;8.608;2023-08-24T14:07:31;1.63;;;1.10;;
45540;SDS011;31265;49.680;8.608;2023-08-24T14:13:56;2.30;;;1.00;;
45540;SDS011;31265;49.680;8.608;2023-08-24T14:16:27;2.33;;;1.08;;
45540;SDS011;31265;49.680;8.608;2023-08-24T14:21:29;2.35;;;1.33;;
45540;SDS011;31265;49.680;8.608;2023-08-24T14:24:03;2.10;;;1.08;;
45540;SDS011;31265;49.680;8.608;2023-08-24T14:26:37;2.08;;;1.17;;
45540;SDS011;31265;49.680;8.608;2023-08-24T14:29:13;8.15;;;1.38;;
45540;SDS011;31265;49.680;8.608;2023-08-24T14:31:45;3.40;;;1.35;;
45540;SDS011;31265;49.680;8.608;2023-08-24T14:34:20;2.28;;;1.10;;
45540;SDS011;31265;49.680;8.608;2023-08-24T14:36:56;1.70;;;1.02;;
45540;SDS011;31265;49.680;8.608;2023-08-24T14:39:27;3.60;;;1.30;;
45540;SDS011;31265;49.680;8.608;2023-08-24T14:42:21;4.00;;;1.20;;
45540;SDS011;31265;49.680;8.608;2023-08-24T14:45:05;2.40;;;1.10;;
45540;SDS011;31265;49.680;8.608;2023-08-24T14:47:44;3.95;;;1.45;;
45540;SDS011;31265;49.680;8.608;2023-08-24T14:50:22;5.40;;;1.83;;
45540;SDS011;31265;49.680;8.608;2023-08-24T14:53:09;3.72;;;1.23;;
45540;SDS011;31265;49.680;8.608;2023-08-24T14:55:41;6.10;;;1.45;;
45540;SDS011;31265;49.680;8.608;2023-08-24T14:58:12;3.75;;;2.05;;
45540;SDS011;31265;49.680;8.608;2023-08-24T15:00:44;2.20;;;1.25;;
45540;SDS011;31265;49.680;8.608;2023-08-24T15:03:15;3.60;;;1.65;;
45540;SDS011;31265;49.680;8.608;2023-08-24T15:05:46;4.00;;;2.13;;
45540;SDS011;31265;49.680;8.608;2023-08-24T15:08:27;5.03;;;2.05;;
45540;SDS011;31265;49.680;8.608;2023-08-24T15:11:01;3.65;;;2.25;;
45540;SDS011;31265;49.680;8.608;2023-08-24T15:13:35;4.53;;;2.03;;
45540;SDS011;31265;49.680;8.608;2023-08-24T15:16:12;5.93;;;2.13;;
45540;SDS011;31265;49.680;8.608;2023-08-24T15:18:53;4.20;;;2.20;;
45540;SDS011;31265;49.680;8.608;2023-08-24T15:21:29;4.18;;;2.00;;
45540;SDS011;31265;49.680;8.608;2023-08-24T15:24:06;3.15;;;1.85;;
45540;SDS011;31265;49.680;8.608;2023-08-24T15:26:40;2.65;;;1.85;;
45540;SDS011;31265;49.680;8.608;2023-08-24T15:29:13;2.92;;;1.92;;
45540;SDS011;31265;49.680;8.608;2023-08-24T15:31:54;4.68;;;1.50;;
45540;SDS011;31265;49.680;8.608;2023-08-24T15:34:23;4.57;;;2.17;;
45540;SDS011;31265;49.680;8.608;2023-08-24T15:37:07;3.53;;;1.98;;
45540;SDS011;31265;49.680;8.608;2023-08-24T15:39:43;3.97;;;1.80;;
45540;SDS011;31265;49.680;8.608;2023-08-24T15:42:14;3.60;;;2.20;;
45540;SDS011;31265;49.680;8.608;2023-08-24T15:44:45;3.35;;;2.03;;
45540;SDS011;31265;49.680;8.608;2023-08-24T15:47:19;4.05;;;2.20;;
45540;SDS011;31265;49.680;8.608;2023-08-24T15:49:49;2.88;;;1.80;;
45540;SDS011;31265;49.680;8.608;2023-08-24T15:52:25;3.50;;;1.90;;
45540;SDS011;31265;49.680;8.608;2023-08-24T15:54:59;4.03;;;1.85;;
45540;SDS011;31265;49.680;8.608;2023-08-24T15:57:27;2.85;;;1.77;;